Time;durP1;ratioP1;P1;durP2;ratioP2;P2;SDS_P1;SDS_P2;PMS_P1;PMS_P2;Temp;Humidity;BMP_temperature;BMP_pressure;BME280_temperature;BME280_humidity;BME280_pressure;Samples;Min_cycle;Max_cycle;Signal;HPM_P1;HPM_P2
2024/03/28 00:01:50;;;;;;;31.08;19.77;;;;;;;10.87;67.30;96991.56;6019992;23;20030;-89
2024/03/28 00:04:21;;;;;;;33.40;20.23;;;;;;;10.82;67.48;96987.59;6019530;23;20022;-89
2024/03/28 00:06:47;;;;;;;34.03;20.27;;;;;;;10.82;67.47;96984.94;6019766;23;20027;-89
2024/03/28 00:09:12;;;;;;;32.40;19.10;;;;;;;10.80;67.49;96991.31;6019665;23;20370;-90
2024/03/28 00:45:10;;;;;;;30.88;17.77;;;;;;;10.62;68.77;96975.66;6041512;23;20019;-87
2024/03/28 00:47:35;;;;;;;25.80;17.00;;;;;;;10.64;68.79;96971.03;5989156;23;20361;-86
2024/03/28 00:50:01;;;;;;;30.85;18.40;;;;;;;10.66;68.82;96966.47;5989106;23;20027;-86
2024/03/28 00:52:27;;;;;;;25.63;16.45;;;;;;;10.69;68.98;96964.31;5989897;23;20529;-86
2024/03/28 00:54:52;;;;;;;26.77;15.98;;;;;;;10.73;69.18;96964.03;5988863;23;20027;-86
2024/03/28 00:57:18;;;;;;;29.95;18.13;;;;;;;10.77;69.02;96979.31;5989863;23;20023;-86
2024/03/28 00:59:44;;;;;;;26.70;16.63;;;;;;;10.79;69.02;96971.28;5989291;23;20072;-86
2024/03/28 01:02:09;;;;;;;26.73;16.05;;;;;;;10.84;68.90;96973.44;5989268;23;20251;-86
2024/03/28 01:04:35;;;;;;;27.77;17.48;;;;;;;10.86;69.02;96977.56;6012548;23;20102;-86
2024/03/28 01:07:00;;;;;;;27.02;15.98;;;;;;;10.88;68.98;96972.94;6012889;23;20138;-86
2024/03/28 01:09:26;;;;;;;27.45;16.90;;;;;;;10.90;68.85;96965.72;6012684;23;20512;-86
2024/03/28 01:11:52;;;;;;;25.58;15.55;;;;;;;10.93;68.91;96965.44;6012496;23;20034;-86
2024/03/28 01:14:17;;;;;;;23.08;15.23;;;;;;;10.94;69.02;96968.84;5988946;23;20092;-87
2024/03/28 01:16:43;;;;;;;24.48;15.40;;;;;;;10.97;69.03;96952.75;6013036;23;20469;-86
2024/03/28 01:19:09;;;;;;;23.73;14.95;;;;;;;10.98;69.07;96950.97;6012807;23;20357;-87
2024/03/28 01:21:34;;;;;;;24.52;15.30;;;;;;;10.99;68.95;96945.50;5989246;23;20024;-86
2024/03/28 01:24:00;;;;;;;24.50;15.95;;;;;;;11.01;68.81;96945.34;6012320;23;20058;-87
2024/03/28 01:26:26;;;;;;;25.25;15.80;;;;;;;11.00;68.76;96931.41;6012465;23;20083;-87
2024/03/28 01:28:52;;;;;;;24.38;15.75;;;;;;;11.01;68.63;96937.47;6012428;23;20034;-87
2024/03/28 01:31:36;;;;;;;27.17;16.63;;;;;;;10.98;68.99;96938.59;5988730;23;20031;-86
2024/03/28 01:34:05;;;;;;;23.45;15.23;;;;;;;11.00;68.75;96934.03;5989124;23;20059;-87
2024/03/28 01:36:31;;;;;;;26.48;15.70;;;;;;;10.98;68.70;96917.56;6012666;23;20027;-86
2024/03/28 01:38:57;;;;;;;24.40;15.20;;;;;;;10.97;68.70;96920.34;5988331;23;20027;-86
2024/03/28 01:41:22;;;;;;;26.80;16.48;;;;;;;10.95;68.98;96923.13;6012192;23;20402;-86
2024/03/28 01:43:48;;;;;;;27.73;15.40;;;;;;;10.95;69.24;96918.69;5988150;23;20102;-86
2024/03/28 01:46:17;;;;;;;26.42;15.85;;;;;;;10.95;69.11;96921.34;6011869;23;20023;-86
2024/03/28 01:48:46;;;;;;;24.65;14.95;;;;;;;10.95;69.14;96913.44;6011725;23;20075;-86
2024/03/28 01:51:41;;;;;;;;;;;;;;;;;;;;;
2024/03/28 01:54:14;;;;;;;23.35;15.48;;;;;;;11.01;69.21;96898.81;6011734;23;20027;-86
2024/03/28 01:56:51;;;;;;;25.50;15.87;;;;;;;11.02;69.12;96900.47;5988962;23;20027;-86
2024/03/28 01:59:26;;;;;;;22.50;14.52;;;;;;;11.01;69.24;96890.91;5988198;23;20024;-86
2024/03/28 02:01:56;;;;;;;21.70;13.60;;;;;;;11.05;68.99;96892.25;5988691;23;20023;-86
2024/03/28 02:04:22;;;;;;;23.58;14.98;;;;;;;11.05;68.95;96886.97;6011589;23;20023;-86
2024/03/28 02:06:48;;;;;;;25.10;14.75;;;;;;;11.05;68.80;96889.63;5988469;23;20043;-86
2024/03/28 02:09:21;;;;;;;22.70;13.48;;;;;;;11.03;69.10;96891.56;5988431;23;20023;-85
2024/03/28 02:11:47;;;;;;;24.63;14.27;;;;;;;11.04;69.06;96885.34;6012055;23;20060;-86
2024/03/28 02:14:23;;;;;;;;;;;;;;;;;;;;;
2024/03/28 02:17:05;;;;;;;22.48;14.43;;;;;;;11.01;69.19;96895.34;6006936;23;20023;-86
2024/03/28 02:19:34;;;;;;;23.92;15.18;;;;;;;11.04;69.32;96885.34;6011973;23;20023;-86
2024/03/28 02:22:01;;;;;;;21.48;14.55;;;;;;;11.04;68.99;96880.06;6012183;23;20031;-85
2024/03/28 02:24:31;;;;;;;24.13;15.65;;;;;;;11.03;68.92;96886.31;6011894;23;20027;-86
2024/03/28 02:26:57;;;;;;;23.27;14.85;;;;;;;11.03;68.99;96882.88;5988650;23;20334;-86
2024/03/28 02:29:26;;;;;;;21.05;13.68;;;;;;;11.03;69.05;96886.31;5988292;23;20124;-86
2024/03/28 02:32:30;;;;;;;;;;;;;;;;;;;;;
2024/03/28 02:35:41;;;;;;;21.25;14.25;;;;;;;11.02;68.87;96882.03;6010826;23;20028;-86
2024/03/28 02:38:14;;;;;;;21.63;12.65;;;;;;;11.01;68.79;96880.38;5989833;23;20023;-86
2024/03/28 02:40:39;;;;;;;;;;;;;;;11.00;68.44;96888.44;6014307;23;20031;-86
2024/03/28 02:43:07;;;;;;;17.42;11.15;;;;;;;11.01;68.50;96883.03;6013633;23;19922;-86
2024/03/28 02:46:09;;;;;;;;;;;;;;;;;;;;;
2024/03/28 02:48:37;;;;;;;18.83;12.95;;;;;;;10.96;68.82;96887.94;6009078;23;20027;-86
2024/03/28 02:51:03;;;;;;;23.13;13.32;;;;;;;10.94;68.71;96880.22;6013683;23;20024;-86
2024/03/28 02:53:29;;;;;;;20.30;13.20;;;;;;;10.92;68.78;96878.72;5989673;23;20023;-86
2024/03/28 02:55:54;;;;;;;21.65;14.20;;;;;;;10.90;68.83;96888.56;6013597;23;20023;-86
2024/03/28 02:58:20;;;;;;;21.02;13.05;;;;;;;10.88;68.99;96890.56;5990103;23;20031;-86
2024/03/28 03:00:48;;;;;;;21.98;14.18;;;;;;;10.86;69.15;96895.16;5989979;23;20019;-86
2024/03/28 03:03:14;;;;;;;21.33;14.55;;;;;;;10.85;69.17;96901.41;6013499;23;20023;-86
2024/03/28 03:05:40;;;;;;;21.45;14.23;;;;;;;10.82;69.13;96898.13;5990309;23;20081;-86
2024/03/28 03:08:06;;;;;;;22.38;13.95;;;;;;;10.82;69.33;96906.00;5990184;23;20035;-86
2024/03/28 03:10:31;;;;;;;20.55;13.05;;;;;;;10.84;69.24;96897.13;5990246;23;20476;-86
2024/03/28 03:12:57;;;;;;;22.25;13.90;;;;;;;10.84;69.32;96889.22;5989808;23;20528;-86
2024/03/28 03:15:24;;;;;;;19.83;13.05;;;;;;;10.81;69.04;96891.19;5989787;23;20130;-86
2024/03/28 03:17:49;;;;;;;21.38;13.82;;;;;;;10.82;69.31;96884.97;6013925;23;20046;-86
2024/03/28 03:20:15;;;;;;;19.50;12.93;;;;;;;10.82;69.45;96882.34;5990010;23;20485;-86
2024/03/28 03:22:52;;;;;;;23.73;14.07;;;;;;;10.82;69.33;96870.97;5989796;23;20027;-86
2024/03/28 03:25:29;;;;;;;18.40;12.48;;;;;;;10.81;69.37;96870.13;5990073;23;20027;-86
2024/03/28 03:36:25;;;;;;;17.23;11.15;;;;;;;10.80;69.04;96868.50;6013326;23;20023;-86
2024/03/28 03:39:24;;;;;;;;;;;;;;;;;;;;;
2024/03/28 03:46:25;;;;;;;;;;;;;;;;;;;;;
2024/03/28 03:49:11;;;;;;;;;;;;;;;;;;;;;
2024/03/28 03:52:07;;;;;;;15.00;10.10;;;;;;;10.73;68.81;96870.13;6041649;23;20022;-86
2024/03/28 03:54:47;;;;;;;15.70;10.65;;;;;;;10.71;69.09;96863.38;6027450;23;20026;-86
2024/03/28 03:58:12;;;;;;;;;;;;;;;;;;;;;
2024/03/28 04:05:08;;;;;;;;;;;;;;;;;;;;;
2024/03/28 04:15:02;;;;;;;14.85;10.10;;;;;;;10.62;69.15;96842.28;6017525;23;20027;-86
2024/03/28 04:17:36;;;;;;;15.00;9.95;;;;;;;10.64;69.01;96834.25;6017898;23;20468;-86
2024/03/28 04:20:11;;;;;;;14.20;9.90;;;;;;;10.61;69.25;96826.69;6041431;23;20030;-86
2024/03/28 04:22:49;;;;;;;14.20;9.90;;;;;;;10.57;69.23;96828.81;6017968;23;20480;-86
2024/03/28 04:25:15;;;;;;;15.95;10.25;;;;;;;10.59;69.22;96824.22;6017775;23;20059;-86
2024/03/28 04:27:41;;;;;;;14.55;9.18;;;;;;;10.59;69.35;96829.47;6017828;23;20030;-86
2024/03/28 04:30:07;;;;;;;14.80;9.80;;;;;;;10.59;69.36;96828.66;6018935;23;20061;-86
2024/03/28 04:32:32;;;;;;;14.63;10.20;;;;;;;10.57;69.36;96822.75;6041920;23;20550;-86
2024/03/28 04:34:58;;;;;;;14.35;9.77;;;;;;;10.57;69.71;96820.13;6041183;23;20033;-86
2024/03/28 04:37:31;;;;;;;14.88;10.38;;;;;;;10.58;69.83;96816.50;6041557;23;20073;-86
2024/03/28 04:39:57;;;;;;;14.32;9.48;;;;;;;10.59;69.69;96812.88;6017659;23;20460;-86
2024/03/28 04:42:23;;;;;;;15.80;10.25;;;;;;;10.59;69.57;96815.50;6017932;23;20031;-87
2024/03/28 04:44:48;;;;;;;18.02;10.60;;;;;;;10.59;69.32;96818.13;6017268;23;20087;-87
2024/03/28 04:47:14;;;;;;;13.98;9.90;;;;;;;10.58;69.45;96811.22;6017829;23;20023;-86
2024/03/28 04:49:42;;;;;;;16.15;10.02;;;;;;;10.58;69.21;96813.88;6018263;23;20535;-86
2024/03/28 04:52:08;;;;;;;17.60;11.20;;;;;;;10.56;69.36;96819.28;6017870;23;20106;-86
2024/03/28 04:54:36;;;;;;;15.32;10.55;;;;;;;10.54;69.50;96814.16;6017271;23;20031;-86
2024/03/28 04:57:03;;;;;;;16.83;10.65;;;;;;;10.52;69.48;96813.53;6017698;23;20022;-87
2024/03/28 04:59:28;;;;;;;15.35;9.35;;;;;;;10.53;69.65;96809.91;6017355;23;20023;-86
2024/03/28 05:01:54;;;;;;;14.82;10.30;;;;;;;10.51;69.30;96809.22;6017852;23;20049;-86
2024/03/28 05:04:20;;;;;;;15.48;10.45;;;;;;;10.51;69.50;96803.16;6041242;23;20345;-86
2024/03/28 05:06:46;;;;;;;16.27;10.40;;;;;;;10.48;69.55;96804.31;6017842;23;20030;-86
2024/03/28 05:09:15;;;;;;;12.70;9.60;;;;;;;10.47;69.58;96799.19;6017554;23;20393;-86
2024/03/28 05:11:41;;;;;;;15.50;10.73;;;;;;;10.48;69.50;96801.69;6041482;23;20031;-87
2024/03/28 05:14:07;;;;;;;15.90;10.27;;;;;;;10.47;69.65;96789.50;6041086;23;20147;-86
2024/03/28 05:16:32;;;;;;;13.82;10.20;;;;;;;10.46;69.68;96789.69;6018154;23;20046;-86
2024/03/28 05:19:00;;;;;;;15.27;9.82;;;;;;;10.43;69.65;96777.63;6017853;23;20045;-86
2024/03/28 05:21:28;;;;;;;13.90;9.73;;;;;;;10.44;69.62;96776.69;6041563;23;20357;-86
2024/03/28 05:23:54;;;;;;;13.77;9.93;;;;;;;10.43;69.41;96759.22;6041121;23;20023;-86
2024/03/28 05:26:20;;;;;;;14.35;10.05;;;;;;;10.43;69.57;96756.56;6017588;23;20484;-86
2024/03/28 05:28:49;;;;;;;14.07;9.60;;;;;;;10.41;69.54;96759.41;6041430;23;20487;-87
2024/03/28 05:31:21;;;;;;;14.88;10.65;;;;;;;10.39;69.63;96755.28;6018112;23;20033;-86
2024/03/28 05:33:47;;;;;;;13.05;9.77;;;;;;;10.38;69.42;96750.97;6017678;23;20359;-86
2024/03/28 05:36:12;;;;;;;12.43;9.18;;;;;;;10.37;69.39;96749.34;6017375;23;20026;-86
2024/03/28 05:38:38;;;;;;;13.23;9.43;;;;;;;10.35;69.71;96741.63;6018712;23;20023;-86
2024/03/28 05:41:04;;;;;;;12.23;9.15;;;;;;;10.33;69.52;96725.19;6017152;23;20035;-87
2024/03/28 05:43:32;;;;;;;12.02;8.98;;;;;;;10.32;69.50;96706.94;6040371;23;20027;-86
2024/03/28 05:46:00;;;;;;;12.88;8.88;;;;;;;10.27;69.49;96692.47;6017044;23;20046;-86
2024/03/28 05:48:25;;;;;;;13.38;8.75;;;;;;;10.24;69.32;96677.03;6041733;23;20023;-86
2024/03/28 05:50:51;;;;;;;11.15;8.88;;;;;;;10.21;69.44;96687.03;6041859;23;20117;-86
2024/03/28 05:53:18;;;;;;;12.15;8.82;;;;;;;10.16;69.65;96698.03;6017608;23;20031;-86
2024/03/28 05:55:45;;;;;;;12.07;8.88;;;;;;;10.12;69.73;96683.56;6017790;23;20033;-86
2024/03/28 06:14:17;;;;;;;12.55;8.88;;;;;;;10.01;70.93;96696.03;6043837;23;20079;-90
2024/03/28 06:16:42;;;;;;;12.00;9.13;;;;;;;10.06;70.83;96692.09;6019194;23;20078;-91
2024/03/28 06:19:08;;;;;;;13.52;9.43;;;;;;;10.08;70.85;96690.13;6018959;23;20461;-90
2024/03/28 06:21:57;;;;;;;12.10;9.23;;;;;;;10.08;71.06;96684.88;6042881;23;20023;-90
2024/03/28 06:24:23;;;;;;;13.18;9.63;;;;;;;10.15;70.95;96684.09;6042903;23;20077;-90
2024/03/28 06:26:56;;;;;;;14.88;10.13;;;;;;;10.18;71.05;96685.56;6018993;23;20027;-90
2024/03/28 06:29:21;;;;;;;;;;;;;;;10.22;70.74;96684.25;6019509;23;20093;-90
2024/03/28 06:32:13;;;;;;;13.88;9.45;;;;;;;10.26;70.52;96679.50;6042826;23;20328;-90
2024/03/28 06:34:39;;;;;;;12.20;9.30;;;;;;;10.33;70.82;96684.91;6019133;23;20030;-90
2024/03/28 06:37:05;;;;;;;13.13;9.18;;;;;;;10.35;70.57;96693.47;6019158;23;20023;-90
2024/03/28 06:39:56;;;;;;;13.48;9.90;;;;;;;10.32;70.69;96691.16;6018832;23;20022;-90
2024/03/28 06:42:21;;;;;;;13.23;9.82;;;;;;;10.38;70.53;96696.59;6019082;23;20030;-90
2024/03/28 07:52:55;;;;;;;7.72;6.00;;;;;;;11.31;68.79;96653.47;6043306;23;20027;-92
2024/03/28 07:55:24;;;;;;;7.57;6.13;;;;;;;11.41;69.42;96642.75;6044819;23;20022;-94
2024/03/28 07:57:50;;;;;;;7.68;5.85;;;;;;;11.45;69.52;96638.78;6022311;23;20026;-95
2024/03/28 08:00:38;;;;;;;7.13;6.03;;;;;;;11.47;68.63;96652.59;6020984;23;20022;-92
2024/03/28 08:03:04;;;;;;;6.78;5.50;;;;;;;11.57;69.16;96668.19;6020960;23;20034;-92
2024/03/28 08:05:29;;;;;;;8.20;6.10;;;;;;;11.60;68.98;96668.66;6020503;23;20027;-92
2024/03/28 08:08:47;;;;;;;6.65;5.50;;;;;;;11.59;67.43;96667.03;6020671;23;20102;-92
2024/03/28 08:11:13;;;;;;;7.10;5.30;;;;;;;11.68;68.33;96667.84;6044470;23;20370;-92
2024/03/28 08:13:39;;;;;;;7.47;5.40;;;;;;;11.70;68.39;96663.19;6020765;23;20023;-92
2024/03/28 08:16:23;;;;;;;6.90;5.90;;;;;;;11.68;67.47;96659.09;6020406;23;20023;-92
2024/03/28 08:18:50;;;;;;;6.63;5.60;;;;;;;11.72;68.27;96661.22;6020946;23;20027;-92
2024/03/28 08:21:17;;;;;;;6.68;5.35;;;;;;;11.73;67.99;96656.75;6044376;23;20438;-92
2024/03/28 08:24:04;;;;;;;7.35;5.50;;;;;;;11.72;66.99;96655.13;6020664;23;20023;-92
2024/03/28 08:26:31;;;;;;;8.18;5.43;;;;;;;11.76;67.63;96650.31;6020601;23;20029;-92
2024/03/28 08:28:57;;;;;;;8.88;6.03;;;;;;;11.78;67.56;96651.00;6020609;23;20327;-92
2024/03/28 08:31:30;;;;;;;8.45;6.35;;;;;;;11.75;66.15;96657.44;6020576;23;20030;-92
2024/03/28 08:33:56;;;;;;;7.05;5.55;;;;;;;11.78;66.71;96656.25;6020632;23;20023;-92
2024/03/28 08:40:09;;;;;;;6.55;5.07;;;;;;;11.78;67.04;96662.31;6069489;23;20021;-92
2024/03/28 08:46:17;;;;;;;7.15;5.07;;;;;;;11.82;67.76;96660.19;6069603;23;20022;-92
2024/03/28 08:49:18;;;;;;;7.38;4.85;;;;;;;11.81;65.05;96659.34;6020501;23;20030;-92
2024/03/28 08:51:44;;;;;;;8.30;5.25;;;;;;;11.86;65.99;96656.22;6020321;23;20353;-92
2024/03/28 08:54:12;;;;;;;9.30;4.80;;;;;;;11.87;64.94;96665.75;6020031;23;20030;-92
2024/03/28 08:56:55;;;;;;;6.93;5.57;;;;;;;11.79;61.32;96653.47;6020375;23;20023;-92
2024/03/28 08:59:44;;;;;;;6.13;4.95;;;;;;;11.80;62.55;96659.53;6043480;23;20378;-92
2024/03/28 09:02:10;;;;;;;9.00;4.38;;;;;;;11.84;65.22;96651.13;6019957;23;20022;-92
2024/03/28 09:04:36;;;;;;;6.22;4.57;;;;;;;11.86;65.02;96651.75;6020169;23;20080;-92
2024/03/28 09:07:14;;;;;;;5.25;4.68;;;;;;;11.86;63.17;96643.84;6020046;23;20034;-92
2024/03/28 09:09:41;;;;;;;7.53;5.20;;;;;;;11.94;64.59;96639.53;6019995;23;20458;-92
2024/03/28 09:12:23;;;;;;;6.97;4.53;;;;;;;11.96;62.77;96642.84;6043660;23;20023;-92
2024/03/28 09:14:54;;;;;;;6.78;5.00;;;;;;;12.05;63.85;96633.91;6019826;23;20027;-92
2024/03/28 09:17:20;;;;;;;5.53;4.43;;;;;;;12.16;64.95;96635.31;6019834;23;20030;-91
2024/03/28 09:20:05;;;;;;;5.22;4.40;;;;;;;12.19;59.11;96639.41;6019825;23;20023;-92
2024/03/28 09:22:33;;;;;;;5.07;4.43;;;;;;;12.30;63.38;96641.63;6043443;23;20023;-92
2024/03/28 09:25:02;;;;;;;6.72;4.15;;;;;;;12.32;61.15;96652.00;6043277;23;20023;-92
2024/03/28 09:27:28;;;;;;;5.13;4.10;;;;;;;12.36;62.15;96654.13;6043074;23;20362;-92
2024/03/28 09:29:55;;;;;;;5.45;4.20;;;;;;;12.40;62.25;96645.88;6019501;23;20094;-92
2024/03/28 09:32:22;;;;;;;4.93;3.45;;;;;;;12.44;62.17;96641.84;6019281;23;20027;-92
2024/03/28 09:34:50;;;;;;;6.22;3.70;;;;;;;12.48;62.16;96643.97;6019641;23;20031;-91
2024/03/28 09:37:17;;;;;;;6.38;3.47;;;;;;;12.56;63.06;96637.81;6019305;23;20030;-92
2024/03/28 09:39:47;;;;;;;3.60;3.30;;;;;;;12.63;60.58;96630.81;6019459;23;20327;-92
2024/03/28 09:42:22;;;;;;;3.30;3.00;;;;;;;12.71;59.37;96642.31;6019082;23;20023;-92
2024/03/28 09:44:49;;;;;;;5.78;2.58;;;;;;;12.83;62.38;96635.63;6019145;23;20033;-92
2024/03/28 09:47:16;;;;;;;3.88;2.80;;;;;;;12.95;62.31;96625.44;6019286;23;20034;-92
2024/03/28 09:49:44;;;;;;;3.75;2.60;;;;;;;13.08;59.53;96631.91;6019085;23;20019;-92
2024/03/28 09:52:18;;;;;;;4.13;2.90;;;;;;;13.16;58.20;96630.00;6019126;23;20083;-92
2024/03/28 09:54:45;;;;;;;5.45;2.60;;;;;;;13.24;59.60;96634.34;6019132;23;20023;-92
2024/03/28 09:57:13;;;;;;;4.25;2.45;;;;;;;13.22;57.53;96639.00;6019102;23;20022;-92
2024/03/28 09:59:42;;;;;;;2.92;2.25;;;;;;;13.18;55.03;96631.63;6018567;23;20026;-91
2024/03/28 10:02:13;;;;;;;2.50;2.30;;;;;;;13.11;56.05;96627.06;6018865;23;20075;-92
2024/03/28 10:04:48;;;;;;;3.85;2.58;;;;;;;13.05;56.01;96646.31;6018977;23;20564;-91
2024/03/28 10:07:16;;;;;;;3.45;2.40;;;;;;;12.98;57.68;96627.69;6018958;23;20029;-92
2024/03/28 10:09:44;;;;;;;2.80;2.05;;;;;;;12.91;57.12;96626.78;6019034;23;20019;-92
2024/03/28 10:12:13;;;;;;;5.18;2.70;;;;;;;12.81;55.84;96639.41;6018938;23;20403;-91
2024/03/28 10:14:54;;;;;;;3.10;2.15;;;;;;;12.70;54.64;96632.75;6019219;23;20029;-92
2024/03/28 10:17:20;;;;;;;3.25;2.47;;;;;;;12.67;57.43;96641.03;6018861;23;20026;-92
2024/03/28 10:20:07;;;;;;;2.63;2.00;;;;;;;12.54;55.85;96644.25;6019146;23;20030;-92
2024/03/28 10:22:41;;;;;;;5.07;2.03;;;;;;;12.43;54.46;96645.50;6022828;23;20026;-95
2024/03/28 10:25:21;;;;;;;1.55;1.45;;;;;;;12.36;55.88;96663.84;6020057;23;20023;-95
2024/03/28 10:28:00;;;;;;;5.10;1.67;;;;;;;12.26;53.61;96671.97;6020668;23;20466;-91
2024/03/28 10:30:26;;;;;;;1.83;1.63;;;;;;;12.23;57.29;96670.53;6018243;23;20336;-92
2024/03/28 10:33:03;;;;;;;1.42;1.08;;;;;;;12.17;56.43;96675.66;6017979;23;20027;-91
2024/03/28 10:35:34;;;;;;;1.70;1.55;;;;;;;12.12;57.43;96689.41;6041546;23;20023;-91
2024/03/28 10:38:07;;;;;;;1.65;1.52;;;;;;;12.01;58.53;96695.84;6017929;23;20343;-91
2024/03/28 10:40:33;;;;;;;;;;;;;;;11.82;59.28;96732.16;6042635;23;20335;-92
2024/03/28 10:43:01;;;;;;;2.60;1.90;;;;;;;11.68;59.75;96717.06;6018132;23;19924;-91
2024/03/28 10:45:31;;;;;;;2.30;1.60;;;;;;;11.41;60.82;96750.72;6018042;23;20023;-91
2024/03/28 10:48:04;;;;;;;2.85;1.85;;;;;;;11.13;61.55;96735.28;6041784;23;20034;-91
2024/03/28 10:50:50;;;;;;;1.58;1.40;;;;;;;10.80;63.71;96746.63;6018225;23;20454;-92
2024/03/28 10:53:25;;;;;;;4.43;1.63;;;;;;;10.47;64.70;96755.31;6018172;23;20030;-92
2024/03/28 10:56:17;;;;;;;2.00;1.40;;;;;;;10.28;64.57;96757.22;6018330;23;20023;-92
2024/03/28 10:58:44;;;;;;;2.50;1.60;;;;;;;10.07;64.97;96762.91;6019998;23;20027;-92
2024/03/28 11:01:10;;;;;;;1.90;1.20;;;;;;;9.91;65.68;96763.66;6019872;23;20383;-93
2024/03/28 11:03:38;;;;;;;2.65;1.50;;;;;;;9.75;66.83;96785.41;6020123;23;20022;-92
2024/03/28 11:06:05;;;;;;;2.17;1.67;;;;;;;9.65;67.02;96770.59;6020355;23;20023;-93
2024/03/28 11:08:31;;;;;;;2.20;1.60;;;;;;;9.57;67.51;96772.34;6020444;23;20057;-93
2024/03/28 11:11:00;;;;;;;1.75;1.38;;;;;;;9.46;68.33;96782.13;6020444;23;20019;-93
2024/03/28 11:13:27;;;;;;;1.77;1.60;;;;;;;9.39;68.79;96775.84;6020530;23;20026;-93
2024/03/28 11:16:06;;;;;;;1.30;1.20;;;;;;;9.32;70.48;96793.19;6043916;23;20022;-94
2024/03/28 11:18:32;;;;;;;2.65;1.15;;;;;;;9.31;68.93;96794.19;6044261;23;20031;-93
2024/03/28 11:21:00;;;;;;;1.20;1.10;;;;;;;9.22;69.48;96793.28;6020490;23;20026;-93
2024/03/28 11:23:26;;;;;;;1.00;1.00;;;;;;;9.19;69.26;96790.97;6020579;23;20031;-94
2024/03/28 11:26:06;;;;;;;1.48;1.30;;;;;;;9.10;70.24;96800.56;6021632;23;20078;-94
2024/03/28 11:28:32;;;;;;;1.20;1.10;;;;;;;9.07;69.51;96806.13;6021317;23;20023;-93
2024/03/28 11:31:02;;;;;;;2.33;1.20;;;;;;;9.04;70.61;96817.75;6021304;23;20023;-94
2024/03/28 11:33:44;;;;;;;1.55;1.20;;;;;;;9.00;70.62;96808.53;6021158;23;20046;-94
2024/03/28 11:36:12;;;;;;;1.40;1.17;;;;;;;8.99;70.39;96806.88;6021037;23;20034;-94
2024/03/28 11:38:41;;;;;;;1.60;1.50;;;;;;;8.96;71.52;96812.41;6021059;23;20026;-94
2024/03/28 11:41:07;;;;;;;3.00;1.30;;;;;;;8.95;71.45;96814.25;6044886;23;20030;-94
2024/03/28 11:43:33;;;;;;;1.85;1.20;;;;;;;8.94;72.08;96812.56;6044700;23;20045;-94
2024/03/28 11:46:00;;;;;;;1.48;1.38;;;;;;;8.95;72.45;96819.47;6020688;23;20027;-94
2024/03/28 11:48:35;;;;;;;2.90;1.33;;;;;;;8.95;73.79;96829.13;6020945;23;20023;-94
2024/03/28 11:51:05;;;;;;;1.50;1.40;;;;;;;8.96;74.03;96831.63;6020997;23;20019;-94
2024/03/28 11:57:19;;;;;;;2.08;1.60;;;;;;;9.02;73.77;96843.31;6070229;23;20026;-94
2024/03/28 12:00:02;;;;;;;1.55;1.40;;;;;;;9.01;75.06;96840.84;6044433;23;20019;-94
2024/03/28 12:02:28;;;;;;;1.35;1.23;;;;;;;9.04;74.38;96837.94;6020907;23;20031;-94
2024/03/28 12:05:01;;;;;;;1.73;1.45;;;;;;;9.04;75.57;96858.91;6044667;23;20358;-94
2024/03/28 12:07:28;;;;;;;2.22;1.50;;;;;;;9.06;74.79;96849.91;6020877;23;20033;-94
2024/03/28 12:09:54;;;;;;;1.75;1.65;;;;;;;9.08;75.18;96855.03;6020836;23;20506;-94
2024/03/28 12:12:55;;;;;;;4.53;1.85;;;;;;;9.03;77.60;96863.31;6044545;23;20098;-94
2024/03/28 12:15:21;;;;;;;3.78;2.00;;;;;;;9.11;75.58;96868.66;6020008;23;20028;-94
2024/03/28 12:18:05;;;;;;;2.20;2.00;;;;;;;9.08;76.91;96873.38;6021277;23;20031;-96
2024/03/28 12:20:31;;;;;;;1.98;1.77;;;;;;;9.12;76.00;96864.22;6045650;23;20029;-94
2024/03/28 12:23:03;;;;;;;3.25;2.67;;;;;;;9.04;77.44;96872.84;6020751;23;20034;-95
2024/03/28 12:25:30;;;;;;;3.17;2.70;;;;;;;9.04;76.42;96885.97;6044385;23;20438;-94
2024/03/28 12:28:00;;;;;;;4.53;2.33;;;;;;;9.01;77.43;96896.75;6021041;23;20045;-94
2024/03/28 12:34:13;;;;;;;2.17;1.98;;;;;;;8.98;77.14;96910.19;6069930;23;20022;-93
2024/03/28 12:36:40;;;;;;;2.65;2.00;;;;;;;8.91;77.53;96930.94;6020287;23;20023;-93
2024/03/28 12:39:09;;;;;;;3.88;2.17;;;;;;;8.92;77.43;96929.94;6044006;23;20023;-94
2024/03/28 12:41:35;;;;;;;2.78;2.22;;;;;;;8.90;77.91;96938.94;6020524;23;20023;-94
2024/03/28 12:44:40;;;;;;;2.97;2.33;;;;;;;8.84;78.13;96938.56;6020414;23;20034;-94
2024/03/28 12:47:05;;;;;;;2.70;2.17;;;;;;;8.91;78.34;96930.09;6031020;23;20027;-86
2024/03/28 12:49:33;;;;;;;2.85;1.90;;;;;;;8.92;78.43;96929.94;5988665;23;20026;-89
2024/03/28 12:51:59;;;;;;;3.63;2.10;;;;;;;8.95;78.45;96937.53;5988349;23;20027;-87
2024/03/28 12:54:24;;;;;;;1.80;1.63;;;;;;;8.97;78.33;96940.03;5988141;23;20098;-87
2024/03/28 12:56:51;;;;;;;1.60;1.50;;;;;;;8.99;78.10;96954.63;5988383;23;20031;-89
2024/03/28 12:59:17;;;;;;;2.25;1.60;;;;;;;9.03;78.10;96978.78;6011898;23;20023;-87
2024/03/28 13:01:43;;;;;;;1.85;1.25;;;;;;;9.06;78.10;96978.50;5988878;23;20083;-87
2024/03/28 13:04:08;;;;;;;3.13;1.60;;;;;;;9.09;78.00;96980.00;6011283;23;20056;-87
2024/03/28 13:06:36;;;;;;;1.73;1.40;;;;;;;9.11;77.76;96978.03;5988550;23;20554;-87
2024/03/28 13:09:02;;;;;;;1.05;0.90;;;;;;;9.18;78.50;96978.25;6011877;23;20027;-87
2024/03/28 13:11:28;;;;;;;0.95;0.85;;;;;;;9.23;78.56;96994.38;5988251;23;20023;-87
2024/03/28 13:13:54;;;;;;;1.25;1.10;;;;;;;9.28;78.40;96994.78;6011907;23;20031;-87
2024/03/28 13:16:21;;;;;;;1.15;1.05;;;;;;;9.33;77.97;97002.22;6011878;23;20027;-87
2024/03/28 13:18:46;;;;;;;1.63;1.00;;;;;;;9.38;77.40;96997.34;5988422;23;20023;-86
2024/03/28 13:21:12;;;;;;;2.63;1.15;;;;;;;9.44;77.89;97009.88;6011914;23;20364;-86
2024/03/28 13:23:38;;;;;;;4.60;1.13;;;;;;;9.49;77.56;97006.78;6011070;23;20035;-87
2024/03/28 13:26:05;;;;;;;1.73;1.08;;;;;;;9.61;78.83;97010.84;5987999;23;20640;-86
2024/03/28 13:28:31;;;;;;;1.17;1.08;;;;;;;9.70;79.12;97018.81;6010891;23;20031;-86
2024/03/28 13:30:57;;;;;;;4.15;1.10;;;;;;;9.82;78.79;97022.88;6010821;23;20030;-86
2024/03/28 13:33:22;;;;;;;2.20;1.33;;;;;;;9.93;78.49;97050.72;6010777;23;20027;-86
2024/03/28 13:35:48;;;;;;;1.98;0.90;;;;;;;10.01;77.96;97023.69;5987291;23;20477;-86
2024/03/28 13:38:13;;;;;;;3.20;1.27;;;;;;;10.10;77.57;97027.22;6011533;23;20360;-86
2024/03/28 13:40:39;;;;;;;3.92;1.65;;;;;;;10.21;78.39;97029.59;5987819;23;20024;-86
2024/03/28 13:43:05;;;;;;;3.70;1.60;;;;;;;10.29;77.85;97027.00;5987893;23;20027;-85
2024/03/28 13:45:30;;;;;;;6.53;1.77;;;;;;;10.37;76.02;97030.69;6011270;23;20027;-86
2024/03/28 13:47:56;;;;;;;2.97;1.95;;;;;;;10.46;76.45;97035.06;6011063;23;20027;-86
2024/03/28 13:50:22;;;;;;;3.53;1.70;;;;;;;10.58;77.26;97032.97;5988044;23;20028;-86
2024/03/28 13:52:48;;;;;;;5.20;1.55;;;;;;;10.71;77.49;97037.84;5987966;23;20035;-86
2024/03/28 13:55:13;;;;;;;3.30;1.70;;;;;;;10.84;77.54;97045.28;5987649;23;20101;-86
2024/03/28 13:57:39;;;;;;;3.17;1.90;;;;;;;10.95;77.21;97055.56;5988321;23;20027;-86
2024/03/28 14:00:06;;;;;;;3.65;2.10;;;;;;;11.05;75.86;97033.56;6011313;23;20080;-86
2024/03/28 14:02:32;;;;;;;3.55;2.00;;;;;;;11.16;76.38;97030.66;5987727;23;20027;-86
2024/03/28 14:04:58;;;;;;;3.20;1.80;;;;;;;11.25;75.74;97031.47;6010932;23;20177;-86
2024/03/28 14:07:23;;;;;;;6.05;1.70;;;;;;;11.30;74.83;97037.13;6011276;23;20544;-86
2024/03/28 14:09:49;;;;;;;4.30;1.90;;;;;;;11.38;74.16;97038.13;6011187;23;20023;-86
2024/03/28 14:12:17;;;;;;;7.97;1.98;;;;;;;11.45;73.00;97047.03;6011371;23;20027;-86
2024/03/28 14:14:43;;;;;;;4.28;2.40;;;;;;;11.56;75.46;97045.91;6011019;23;20050;-86
2024/03/28 14:17:08;;;;;;;3.50;1.80;;;;;;;11.67;76.06;97050.84;6011508;23;20050;-86
2024/03/28 14:19:34;;;;;;;3.58;1.85;;;;;;;11.77;75.54;97048.06;6011019;23;20034;-86
2024/03/28 14:22:00;;;;;;;4.63;2.20;;;;;;;11.88;74.90;97051.41;6011141;23;20102;-86
2024/03/28 14:24:25;;;;;;;5.32;2.25;;;;;;;11.99;75.56;97048.44;6011243;23;20027;-86
2024/03/28 14:26:51;;;;;;;8.95;2.63;;;;;;;12.09;73.58;97078.16;6010899;23;20038;-86
2024/03/28 14:29:17;;;;;;;3.00;2.38;;;;;;;12.21;74.27;97061.97;5987849;23;20023;-86
2024/03/28 14:31:42;;;;;;;4.30;2.47;;;;;;;12.30;73.83;97066.25;6011251;23;20027;-86
2024/03/28 14:34:08;;;;;;;4.35;2.20;;;;;;;12.38;73.51;97071.53;6010789;23;20084;-86